Time;durP1;ratioP1;P1;durP2;ratioP2;P2;SDS_P1;SDS_P2;PMS_P1;PMS_P2;Temp;Humidity;BMP_temperature;BMP_pressure;BME280_temperature;BME280_humidity;BME280_pressure;Samples;Min_cycle;Max_cycle;Signal;HPM_P1;HPM_P2
2022/06/15 00:01:20;;;;;;;4.60;3.03;;;22.50;52.20;;;-142.21;65.85;112049.66;5061198;28;20201;-75
2022/06/15 00:03:47;;;;;;;4.93;3.13;;;22.50;52.30;;;-142.21;65.72;112049.66;5060901;28;20208;-74
2022/06/15 00:06:20;;;;;;;4.93;3.67;;;22.50;52.40;;;-142.21;66.28;112049.66;5052311;28;20571;-76
2022/06/15 00:08:52;;;;;;;6.20;3.40;;;22.40;52.50;;;-142.21;67.43;112049.66;5068621;28;20212;-76
2022/06/15 00:11:24;;;;;;;5.80;3.70;;;22.40;52.70;;;-142.21;66.90;112049.66;5059552;28;20186;-75
2022/06/15 00:13:53;;;;;;;3.80;3.40;;;22.40;52.70;;;-142.21;66.46;112049.66;5052906;28;20194;-75
2022/06/15 00:16:24;;;;;;;4.13;3.47;;;22.40;52.50;;;-142.21;67.07;112049.66;5056248;28;20206;-75
2022/06/15 00:18:52;;;;;;;5.00;3.57;;;22.30;52.50;;;-142.21;66.62;112049.66;5059611;27;20573;-75
2022/06/15 00:21:21;;;;;;;3.97;3.10;;;22.30;52.50;;;-142.21;66.79;112049.66;5055891;28;20288;-75
2022/06/15 00:23:50;;;;;;;5.47;3.67;;;22.30;52.50;;;-142.21;67.17;112049.66;5047300;28;20206;-75
2022/06/15 00:26:17;;;;;;;4.87;2.73;;;22.30;52.70;;;-142.21;67.28;112049.66;5055009;28;20247;-75
2022/06/15 00:28:44;;;;;;;6.20;3.40;;;22.30;52.70;;;-142.21;67.71;112049.66;5073536;28;20240;-76
2022/06/15 00:31:12;;;;;;;4.23;3.37;;;22.30;52.80;;;-142.21;67.75;112049.66;5065495;28;20209;-75
2022/06/15 00:33:39;;;;;;;4.13;3.10;;;22.30;52.90;;;-142.21;67.17;112049.66;5056066;28;20663;-75
2022/06/15 00:36:10;;;;;;;5.40;3.00;;;22.20;52.60;;;-142.21;65.85;112049.66;5072997;28;20204;-75
2022/06/15 00:38:41;;;;;;;4.27;2.97;;;22.20;52.40;;;-142.21;66.72;112049.66;5062753;28;20194;-74
2022/06/15 00:41:12;;;;;;;3.60;2.90;;;22.20;52.60;;;-142.21;67.78;112049.66;5072524;28;20201;-75
2022/06/15 00:43:44;;;;;;;4.37;3.23;;;22.20;52.90;;;-142.21;68.37;112049.66;5067189;28;20287;-75
2022/06/15 00:46:21;;;;;;;5.40;3.30;;;22.20;52.80;;;-142.21;69.27;112049.66;5036296;28;20194;-74
2022/06/15 00:48:53;;;;;;;6.03;3.10;;;22.20;53.10;;;-142.21;68.49;112049.66;5054036;28;20213;-76
2022/06/15 00:51:21;;;;;;;4.50;3.23;;;22.10;52.90;;;-142.21;69.16;112049.66;5062531;28;20198;-74
2022/06/15 00:53:51;;;;;;;5.10;3.67;;;22.10;52.90;;;-142.21;68.13;112049.66;5063707;28;20669;-75
2022/06/15 00:56:19;;;;;;;6.00;3.27;;;22.10;52.90;;;-142.21;67.47;112049.66;5070384;28;20202;-75
2022/06/15 00:58:52;;;;;;;4.10;3.57;;;22.10;52.80;;;-142.21;66.52;112049.66;5056571;28;20693;-75
2022/06/15 01:01:19;;;;;;;4.20;2.90;;;22.10;52.60;;;-142.21;67.79;112049.66;5073765;28;20550;-74
2022/06/15 01:03:50;;;;;;;4.73;3.20;;;22.10;52.70;;;-142.21;68.25;112049.66;5057279;28;20213;-75
2022/06/15 01:06:31;;;;;;;4.30;3.40;;;22.10;52.90;;;-142.21;68.73;112049.66;5059503;28;20243;-76
2022/06/15 01:09:13;;;;;;;3.80;3.07;;;22.10;53.10;;;-142.21;69.38;112049.66;5072461;28;20223;-74
2022/06/15 01:12:07;;;;;;;4.57;3.43;;;22.00;53.30;;;-142.21;70.17;112049.66;5055253;28;20213;-75
2022/06/15 01:15:09;;;;;;;4.77;3.07;;;22.00;54.20;;;-142.21;70.66;112049.66;5034185;28;20604;-74
2022/06/15 01:17:58;;;;;;;4.70;3.20;;;21.90;53.80;;;-142.21;71.40;112049.66;5049165;28;20240;-76
2022/06/15 01:20:45;;;;;;;3.83;3.37;;;21.90;53.80;;;-142.21;71.16;112049.66;5055836;28;20643;-74
2022/06/15 01:24:09;;;;;;;4.00;3.60;;;21.90;53.80;;;-142.21;70.63;112049.66;5071813;28;20538;-75
2022/06/15 01:27:12;;;;;;;3.67;3.37;;;21.80;53.80;;;-142.21;73.12;112049.66;5057079;28;20208;-76
2022/06/15 01:30:23;;;;;;;4.00;3.07;;;21.80;54.40;;;-142.21;73.72;112049.66;5068148;28;20211;-75
2022/06/15 01:33:06;;;;;;;4.73;3.57;;;21.70;54.90;;;-142.21;73.63;112049.66;5072714;28;20546;-75
2022/06/15 01:35:46;;;;;;;4.77;3.03;;;21.70;54.40;;;-142.21;74.12;112049.66;5071631;28;20502;-75
2022/06/15 01:38:34;;;;;;;3.80;3.23;;;21.60;54.30;;;-142.21;74.16;112049.66;5064493;28;20659;-74
2022/06/15 01:41:14;;;;;;;4.20;3.13;;;21.60;54.60;;;-142.21;73.68;112049.66;5056945;28;20574;-75
2022/06/15 01:43:51;;;;;;;3.93;3.20;;;21.60;54.30;;;-142.21;72.84;112049.66;5033319;28;20194;-75
2022/06/15 01:46:21;;;;;;;5.70;3.83;;;21.60;54.10;;;-142.21;71.70;112049.66;5055641;28;20200;-75
2022/06/15 01:48:52;;;;;;;3.47;2.90;;;21.60;53.80;;;-142.21;71.51;112049.66;5073468;28;20197;-73
2022/06/15 01:51:27;;;;;;;3.77;3.20;;;21.60;53.70;;;-142.21;70.70;112049.66;5069909;28;20193;-75
2022/06/15 01:54:00;;;;;;;7.27;3.30;;;21.60;53.60;;;-142.21;69.64;112049.66;5072183;28;20638;-76
2022/06/15 01:56:34;;;;;;;5.53;3.57;;;21.60;53.50;;;-142.21;68.57;112049.66;5056558;28;20306;-74
2022/06/15 01:59:11;;;;;;;7.67;3.33;;;21.60;53.30;;;-142.21;67.68;112049.66;5072357;28;20193;-75
2022/06/15 02:01:53;;;;;;;4.43;3.40;;;21.60;53.10;;;-142.21;67.41;112049.66;5026599;28;20224;-75
2022/06/15 02:04:34;;;;;;;4.87;3.10;;;21.60;53.10;;;-142.21;67.48;112049.66;5053125;28;20201;-75
2022/06/15 02:07:22;;;;;;;3.70;3.10;;;21.60;53.00;;;-142.21;67.17;112049.66;5063520;28;20205;-75
2022/06/15 02:09:55;;;;;;;4.77;3.30;;;21.70;53.10;;;-142.21;66.74;112049.66;5056235;28;20209;-75
2022/06/15 02:12:34;;;;;;;5.17;3.20;;;21.70;52.90;;;-142.21;66.75;112049.66;5066059;28;20204;-75
2022/06/15 02:15:08;;;;;;;4.70;3.10;;;21.70;53.00;;;-142.21;66.28;112049.66;5067225;28;20193;-75
2022/06/15 02:17:43;;;;;;;5.50;2.83;;;21.70;52.80;;;-142.21;66.72;112049.66;5066367;28;20194;-74
2022/06/15 02:20:17;;;;;;;4.77;3.43;;;21.70;53.00;;;-142.21;67.28;112049.66;5068593;28;20192;-74
2022/06/15 02:22:48;;;;;;;5.30;3.17;;;21.70;53.00;;;-142.21;67.20;112049.66;5017699;28;20220;-74
2022/06/15 02:25:21;;;;;;;3.43;3.13;;;21.60;52.90;;;-142.21;66.53;112049.66;5052113;28;20208;-75
2022/06/15 02:27:51;;;;;;;4.97;3.33;;;21.70;52.90;;;-142.21;67.26;112049.66;5052277;28;20714;-74
2022/06/15 02:30:25;;;;;;;7.37;3.20;;;21.70;52.90;;;-142.21;67.48;112049.66;5052214;28;20219;-74
2022/06/15 02:32:54;;;;;;;4.57;3.23;;;21.70;52.90;;;-142.21;68.15;112049.66;5052631;28;20196;-74
2022/06/15 02:35:25;;;;;;;5.10;3.03;;;21.60;53.00;;;-142.21;68.86;112049.66;5054780;28;20224;-75
2022/06/15 02:37:54;;;;;;;5.00;3.23;;;21.60;53.10;;;-142.21;69.30;112049.66;5071624;28;20208;-75
2022/06/15 02:40:23;;;;;;;4.10;3.23;;;21.60;53.40;;;-142.21;69.60;112049.66;5070565;28;20194;-74
2022/06/15 02:42:51;;;;;;;5.53;2.83;;;21.50;53.30;;;-142.21;70.84;112049.66;5069402;28;20198;-74
2022/06/15 02:45:24;;;;;;;3.53;3.00;;;21.50;53.70;;;-142.21;71.91;112049.66;5070201;28;20201;-75
2022/06/15 02:47:54;;;;;;;4.07;3.13;;;21.40;54.00;;;-142.21;72.15;112049.66;5052133;28;21077;-75
2022/06/15 02:50:22;;;;;;;3.03;2.83;;;21.40;54.10;;;-142.21;72.94;112049.66;5065941;28;20228;-75
2022/06/15 02:52:59;;;;;;;3.57;3.20;;;21.30;54.30;;;-142.21;73.50;112049.66;5056725;28;20202;-74
2022/06/15 02:55:27;;;;;;;3.80;3.40;;;21.30;54.40;;;-142.21;74.16;112049.66;5063726;28;20193;-75
2022/06/15 02:58:07;;;;;;;5.23;3.57;;;21.30;54.40;;;-142.21;74.66;112049.66;5063460;28;20197;-75
2022/06/15 03:00:35;;;;;;;7.00;3.57;;;21.20;54.70;;;-142.21;75.75;112049.66;5053560;28;20572;-75
2022/06/15 03:03:06;;;;;;;3.53;3.17;;;21.20;54.90;;;-142.21;76.30;112049.66;5027292;28;20198;-73
2022/06/15 03:05:33;;;;;;;3.70;3.33;;;21.10;55.20;;;-142.21;77.38;112049.66;5021695;28;20281;-73
2022/06/15 03:08:00;;;;;;;4.73;3.47;;;21.00;55.20;;;-142.21;77.45;112049.66;5069827;28;20208;-74
2022/06/15 03:10:27;;;;;;;4.27;3.27;;;21.00;55.50;;;-142.21;77.59;112049.66;5071695;28;20229;-73
2022/06/15 03:12:54;;;;;;;3.63;3.00;;;20.90;55.40;;;-142.21;77.72;112049.66;5055667;28;20209;-74
2022/06/15 03:15:22;;;;;;;4.77;3.10;;;20.90;55.50;;;-142.21;77.92;112049.66;5061408;28;20216;-74
2022/06/15 03:17:52;;;;;;;3.90;3.07;;;20.90;55.60;;;-142.21;78.53;112049.66;5059537;28;20198;-73
2022/06/15 03:20:21;;;;;;;3.73;3.43;;;20.80;55.70;;;-142.21;79.38;112049.66;5060894;28;20190;-74
2022/06/15 03:22:50;;;;;;;3.57;3.20;;;20.70;55.80;;;-142.21;79.72;112049.66;5054245;28;20209;-74
2022/06/15 03:25:18;;;;;;;3.83;3.20;;;20.70;55.90;;;-142.21;79.71;112049.66;5053773;28;20603;-74
2022/06/15 03:27:56;;;;;;;5.67;3.43;;;20.70;56.00;;;-142.21;80.05;112049.66;5068751;28;20237;-74
2022/06/15 03:30:23;;;;;;;5.03;2.97;;;20.60;56.20;;;-142.21;79.96;112049.66;5067327;28;20600;-73
2022/06/15 03:32:50;;;;;;;5.23;3.50;;;20.60;56.30;;;-142.21;79.72;112049.66;5071131;28;20650;-73
2022/06/15 03:35:17;;;;;;;4.77;3.10;;;20.60;56.20;;;-142.21;79.94;112049.66;5057027;28;20212;-73
2022/06/15 03:37:46;;;;;;;4.23;3.50;;;20.50;56.20;;;-142.21;80.23;112049.66;5051777;28;20198;-73
2022/06/15 03:40:13;;;;;;;7.60;3.37;;;20.50;56.30;;;-142.21;80.14;112049.66;5062968;28;20189;-73
2022/06/15 03:42:40;;;;;;;5.73;3.20;;;20.50;56.30;;;-142.21;80.07;112049.66;5059186;28;20663;-73
2022/06/15 03:45:12;;;;;;;6.87;3.43;;;20.50;56.30;;;-142.21;80.92;112049.66;5050892;28;20206;-73
2022/06/15 03:47:40;;;;;;;4.73;3.47;;;20.50;56.60;;;-142.21;81.34;112049.66;5039758;28;20197;-73
2022/06/15 03:50:08;;;;;;;4.17;3.33;;;20.40;56.60;;;-142.21;81.48;112049.66;5055448;28;20228;-74
2022/06/15 03:52:35;;;;;;;6.90;3.67;;;20.40;56.70;;;-142.21;82.20;112049.66;5067478;28;20288;-73
2022/06/15 03:55:05;;;;;;;4.00;3.60;;;20.40;56.90;;;-142.21;82.76;112049.66;5083052;28;20251;-73
2022/06/15 03:57:34;;;;;;;4.57;3.70;;;20.30;57.10;;;-142.21;82.61;112049.66;5039409;28;20201;-73
2022/06/15 04:00:01;;;;;;;4.13;3.40;;;20.30;57.10;;;-142.21;82.34;112049.66;5054952;28;20206;-73
2022/06/15 04:02:28;;;;;;;3.57;3.13;;;20.30;57.10;;;-142.21;83.01;112049.66;5073067;28;20624;-73
2022/06/15 04:04:55;;;;;;;3.60;3.30;;;20.30;57.30;;;-142.21;83.46;112049.66;5058116;28;20230;-73
2022/06/15 04:10:13;;;;;;;6.57;3.90;;;20.30;57.60;;;-142.21;83.60;112049.66;5062932;28;20680;-74
2022/06/15 04:12:42;;;;;;;4.23;3.77;;;20.30;57.80;;;-142.21;84.16;112049.66;5065053;28;20263;-74
2022/06/15 04:15:11;;;;;;;5.13;3.70;;;20.30;57.80;;;-142.21;84.50;112049.66;5054300;28;20204;-74
2022/06/15 04:17:38;;;;;;;8.17;4.37;;;20.20;57.80;;;-142.21;85.73;112049.66;5067197;28;20669;-74
2022/06/15 04:22:52;;;;;;;5.47;3.50;;;20.20;58.60;;;-142.21;86.72;112049.66;5071754;28;20204;-73
2022/06/15 04:25:20;;;;;;;5.07;4.00;;;20.20;58.60;;;-142.21;86.56;112049.66;5060551;28;20204;-74
2022/06/15 04:27:47;;;;;;;4.37;3.73;;;20.20;58.70;;;-142.21;86.70;112049.66;5055843;28;20248;-74
2022/06/15 04:30:15;;;;;;;4.03;3.63;;;20.20;58.70;;;-142.21;86.16;112049.66;5072752;28;20223;-74
2022/06/15 04:32:46;;;;;;;4.70;3.47;;;20.20;58.50;;;-142.21;87.15;112049.66;5061273;28;20202;-73
2022/06/15 04:35:13;;;;;;;5.27;3.97;;;20.20;58.90;;;-142.21;86.42;112049.66;5054314;28;20550;-73
2022/06/15 04:37:40;;;;;;;6.13;3.87;;;20.20;58.70;;;-142.21;87.07;112049.66;5067471;28;20212;-73
2022/06/15 04:40:09;;;;;;;6.10;3.80;;;20.30;59.10;;;-142.21;85.51;112049.66;5062967;28;20587;-73
2022/06/15 04:42:38;;;;;;;7.10;4.30;;;20.30;58.50;;;-142.21;86.37;112049.66;5059687;28;20301;-74
2022/06/15 04:45:07;;;;;;;10.10;4.60;;;20.40;58.70;;;-142.21;84.08;112049.66;5054559;28;20228;-74
2022/06/15 04:47:34;;;;;;;8.07;4.50;;;20.40;57.80;;;-142.21;84.71;112049.66;5043830;28;20205;-74
2022/06/15 04:50:01;;;;;;;5.13;3.67;;;20.50;58.10;;;-142.21;83.38;112049.66;5074076;28;20221;-74
2022/06/15 04:52:28;;;;;;;4.47;4.03;;;20.50;58.10;;;-142.21;83.93;112049.66;5055582;28;20197;-74
2022/06/15 04:54:55;;;;;;;5.40;3.70;;;20.50;58.40;;;-142.21;83.34;112049.66;5059551;28;20628;-74
2022/06/15 04:57:23;;;;;;;4.93;3.77;;;20.60;58.00;;;-142.21;83.49;112049.66;5059693;28;20564;-74
2022/06/15 04:59:51;;;;;;;6.90;3.60;;;20.60;58.00;;;-142.21;82.62;112049.66;5072098;28;20197;-74
2022/06/15 05:02:19;;;;;;;4.83;3.63;;;20.70;57.90;;;-142.21;83.18;112049.66;5070600;28;20559;-74
2022/06/15 05:04:46;;;;;;;4.47;3.20;;;20.80;57.90;;;-142.21;82.96;112049.66;5074094;28;20647;-74
2022/06/15 05:07:13;;;;;;;3.53;3.20;;;20.90;57.70;;;-142.21;81.87;112049.66;5061013;28;20289;-73
2022/06/15 05:09:40;;;;;;;5.23;3.20;;;20.90;57.30;;;-142.21;82.04;112049.66;5065214;28;20219;-74
2022/06/15 05:12:09;;;;;;;4.07;2.97;;;21.00;57.30;;;-142.21;80.41;112049.66;5053674;28;20212;-74
2022/06/15 05:14:36;;;;;;;4.20;3.17;;;21.10;56.90;;;-142.21;79.56;112049.66;5053900;28;20210;-73
2022/06/15 05:17:05;;;;;;;5.00;3.50;;;21.10;56.70;;;-142.21;79.46;112049.66;5054974;28;20202;-73
2022/06/15 05:19:32;;;;;;;5.37;3.57;;;21.00;56.50;;;-142.21;79.62;112049.66;5072321;28;20256;-73
2022/06/15 05:21:59;;;;;;;5.33;3.70;;;21.00;56.70;;;-142.21;82.40;112049.66;5061698;28;20289;-73
2022/06/15 05:24:26;;;;;;;4.67;3.10;;;21.00;57.50;;;-142.21;81.59;112049.66;5053392;28;20202;-74
2022/06/15 05:26:53;;;;;;;5.40;3.27;;;21.20;57.50;;;-142.21;79.30;112049.66;5054539;28;20202;-72
2022/06/15 05:29:20;;;;;;;4.20;3.13;;;21.30;56.70;;;-142.21;79.16;112049.66;5053238;28;20198;-74
2022/06/15 05:31:48;;;;;;;4.73;3.03;;;21.40;56.60;;;-142.21;78.55;112049.66;5064493;28;20217;-73
2022/06/15 05:34:17;;;;;;;4.83;3.30;;;21.40;56.30;;;-142.21;76.28;112049.66;5055006;28;20224;-73
2022/06/15 05:36:44;;;;;;;4.47;3.33;;;21.50;55.80;;;-142.21;75.84;112049.66;5053584;28;20232;-74
2022/06/15 05:39:12;;;;;;;3.53;2.90;;;21.60;55.70;;;-142.21;74.92;112049.66;5053177;28;20209;-74
2022/06/15 05:41:40;;;;;;;3.70;3.27;;;21.60;55.30;;;-142.21;74.89;112049.66;5063989;28;20189;-74
2022/06/15 05:44:08;;;;;;;5.00;3.17;;;21.70;55.90;;;-142.21;76.80;112049.66;5072528;28;20677;-73
2022/06/15 05:46:39;;;;;;;5.17;3.27;;;21.80;55.70;;;-142.21;80.43;112049.66;5067846;28;20247;-75
2022/06/15 05:49:08;;;;;;;5.77;3.17;;;21.90;56.50;;;-142.21;79.52;112049.66;5050942;28;20717;-75
2022/06/15 05:51:36;;;;;;;3.83;3.33;;;22.00;56.30;;;-142.21;80.95;112049.66;5064839;28;20228;-75
2022/06/15 05:54:05;;;;;;;4.47;3.33;;;22.00;56.70;;;-142.21;76.84;112049.66;5054823;28;20228;-74
2022/06/15 05:56:33;;;;;;;3.87;3.10;;;22.10;55.50;;;-142.21;79.01;112049.66;5061859;28;20221;-74
2022/06/15 05:59:00;;;;;;;5.57;3.20;;;22.20;56.00;;;-142.21;80.76;112049.66;5053313;28;20213;-75
2022/06/15 06:01:31;;;;;;;4.50;3.10;;;22.30;56.50;;;-142.21;80.24;112049.66;5049704;28;20222;-74
2022/06/15 06:04:00;;;;;;;4.53;3.17;;;22.30;56.40;;;-142.21;78.39;112049.66;5053000;28;20548;-75
2022/06/15 06:06:29;;;;;;;7.40;3.03;;;22.40;56.00;;;-142.21;77.13;112049.66;5049418;28;20208;-74
2022/06/15 06:08:58;;;;;;;5.63;3.30;;;22.50;55.40;;;-142.21;76.88;112049.66;5052944;28;20221;-74
2022/06/15 06:11:27;;;;;;;2.90;2.60;;;22.50;55.40;;;-142.21;77.41;112049.66;5051463;28;20241;-74
2022/06/15 06:13:54;;;;;;;4.80;3.13;;;22.60;55.50;;;-142.21;74.06;112049.66;5053020;28;20213;-75
2022/06/15 06:16:22;;;;;;;4.27;3.30;;;22.70;54.80;;;-142.21;73.66;112049.66;5051971;28;20216;-75
2022/06/15 06:18:50;;;;;;;5.70;3.80;;;22.70;54.50;;;-142.21;74.00;112049.66;5053927;28;20194;-74
2022/06/15 06:21:18;;;;;;;4.33;3.20;;;22.80;54.50;;;-142.21;75.01;112049.66;5063836;28;20205;-75
2022/06/15 06:23:47;;;;;;;3.30;3.00;;;22.90;54.80;;;-142.21;74.75;112049.66;5072851;28;20203;-75
2022/06/15 06:26:22;;;;;;;4.63;3.00;;;23.00;54.70;;;-142.21;74.30;112049.66;5055386;28;20347;-75
2022/06/15 06:28:49;;;;;;;4.77;2.93;;;23.00;54.60;;;-142.21;74.25;112049.66;5052299;28;20320;-74
2022/06/15 06:31:20;;;;;;;2.93;2.60;;;23.10;54.50;;;-142.21;75.85;112049.66;5051758;28;20321;-75
2022/06/15 06:33:48;;;;;;;6.03;3.70;;;23.20;54.80;;;-142.21;75.20;112049.66;5052656;28;20278;-74
2022/06/15 06:36:21;;;;;;;3.63;2.83;;;23.20;54.70;;;-142.21;69.90;112049.66;5051788;28;20197;-74
2022/06/15 06:38:49;;;;;;;3.03;2.67;;;23.30;53.50;;;-142.21;68.42;112049.66;5052677;28;20189;-75
2022/06/15 06:41:22;;;;;;;4.23;3.60;;;23.30;52.90;;;-142.21;66.51;112049.66;5051667;28;20565;-75
2022/06/15 06:43:50;;;;;;;4.90;3.00;;;23.40;52.40;;;-142.21;68.29;112049.66;5050997;28;20634;-74
2022/06/15 06:46:18;;;;;;;4.37;2.87;;;23.50;52.80;;;-142.21;70.49;112049.66;5051922;28;20205;-74
2022/06/15 06:48:46;;;;;;;4.27;3.17;;;23.60;53.50;;;-142.21;70.43;112049.66;5052330;28;20573;-75
2022/06/15 06:51:13;;;;;;;3.30;2.97;;;23.70;53.30;;;-142.21;68.45;112049.66;5051572;28;20240;-74
2022/06/15 06:53:41;;;;;;;3.40;2.90;;;23.70;52.70;;;-142.21;68.18;112049.66;5052440;28;20292;-75
2022/06/15 06:56:10;;;;;;;3.27;2.80;;;23.80;52.70;;;-142.21;66.13;112049.66;5052074;28;20205;-75
2022/06/15 06:58:39;;;;;;;4.50;2.50;;;23.90;52.30;;;-142.21;62.53;112049.66;5052335;28;20216;-75
2022/06/15 07:01:07;;;;;;;3.00;2.70;;;24.00;51.50;;;-142.21;60.74;112049.66;5052152;28;20301;-74
2022/06/15 07:03:34;;;;;;;3.80;3.27;;;24.00;51.10;;;-142.21;61.92;112049.66;5050956;28;20216;-75
2022/06/15 07:06:05;;;;;;;4.17;3.20;;;24.10;51.40;;;-142.21;60.41;112049.66;5052251;28;20298;-75
2022/06/15 07:08:32;;;;;;;3.20;2.67;;;24.10;51.00;;;-142.21;61.31;112049.66;5051587;28;20198;-75
2022/06/15 07:11:00;;;;;;;3.53;2.60;;;24.20;51.40;;;-142.21;61.69;112049.66;5051768;28;20255;-74
2022/06/15 07:13:27;;;;;;;4.03;2.93;;;24.30;51.40;;;-142.21;60.92;112049.66;5052545;28;20208;-75
2022/06/15 07:15:56;;;;;;;4.47;2.83;;;24.40;50.90;;;-142.21;63.10;112049.66;5051688;28;20581;-74
2022/06/15 07:18:23;;;;;;;4.03;2.87;;;24.50;51.40;;;-142.21;63.90;112049.66;5051412;28;20209;-74
2022/06/15 07:20:50;;;;;;;4.53;3.37;;;24.60;52.10;;;-142.21;63.23;112049.66;5051722;28;20255;-74
2022/06/15 07:23:19;;;;;;;3.37;2.67;;;24.70;51.50;;;-142.21;55.82;112049.66;5051289;28;20205;-74
2022/06/15 07:25:46;;;;;;;4.17;2.90;;;24.80;49.80;;;-142.21;54.91;112049.66;5051605;28;20350;-75
2022/06/15 07:28:15;;;;;;;3.03;2.73;;;24.80;49.80;;;-142.21;55.11;112049.66;5050677;28;20327;-75
2022/06/15 07:30:42;;;;;;;4.57;2.97;;;24.90;49.80;;;-142.21;56.36;112049.66;5051537;28;20225;-76
2022/06/15 07:33:10;;;;;;;4.50;3.30;;;25.00;50.00;;;-142.21;54.22;112049.66;5051469;28;20216;-74
2022/06/15 07:35:38;;;;;;;3.43;3.13;;;25.00;49.10;;;-142.21;55.97;112049.66;5051719;28;20328;-74
2022/06/15 07:38:06;;;;;;;3.17;2.60;;;25.20;49.70;;;-142.21;56.39;112049.66;5051474;28;20267;-74
2022/06/15 07:40:33;;;;;;;5.33;3.30;;;25.30;49.60;;;-142.21;56.09;112049.66;5050973;28;20220;-74
2022/06/15 07:43:01;;;;;;;4.27;2.63;;;25.40;49.40;;;-142.21;54.52;112049.66;5051633;28;20301;-75
2022/06/15 07:45:28;;;;;;;4.40;2.50;;;25.50;49.20;;;-142.21;53.09;112049.66;5051157;28;20206;-74
2022/06/15 07:50:44;;;;;;;5.17;3.47;;;25.50;49.00;;;-142.21;55.46;112049.66;5051407;28;20654;-75
2022/06/15 07:53:15;;;;;;;3.87;3.30;;;25.60;49.50;;;-142.21;52.22;112049.66;5051682;28;20190;-75
2022/06/15 07:55:47;;;;;;;3.47;3.00;;;25.80;48.40;;;-142.21;53.02;112049.66;5051671;28;20285;-74
2022/06/15 07:58:17;;;;;;;5.00;3.50;;;25.80;48.40;;;-142.21;51.54;112049.66;5050999;28;20205;-75
2022/06/15 08:00:47;;;;;;;4.03;3.43;;;25.80;48.20;;;-142.21;50.44;112049.66;5051552;28;20297;-74
2022/06/15 08:03:16;;;;;;;3.43;3.13;;;25.80;47.90;;;-142.21;50.80;112049.66;5051026;28;20212;-75
2022/06/15 08:05:50;;;;;;;3.07;2.70;;;25.80;48.20;;;-142.21;50.48;112049.66;5051525;28;20205;-75
2022/06/15 08:08:22;;;;;;;5.80;3.10;;;25.90;48.00;;;-142.21;50.69;112049.66;5050787;28;20225;-75
2022/06/15 08:10:50;;;;;;;4.00;3.60;;;26.00;47.90;;;-142.21;49.46;112049.66;5051369;28;20622;-75
2022/06/15 08:13:19;;;;;;;4.07;3.30;;;26.10;47.40;;;-142.21;48.08;112049.66;5050730;28;20688;-75
2022/06/15 08:15:50;;;;;;;3.20;2.87;;;26.10;47.40;;;-142.21;53.29;112049.66;5051395;28;20202;-74
2022/06/15 08:18:22;;;;;;;3.20;2.90;;;26.20;48.90;;;-142.21;50.96;112049.66;5050927;28;20197;-75
2022/06/15 08:20:56;;;;;;;6.30;3.17;;;26.30;48.40;;;-142.21;50.59;112049.66;5051488;28;20190;-76
2022/06/15 08:23:28;;;;;;;3.30;3.00;;;26.40;48.00;;;-142.21;53.34;112049.66;5050672;28;20194;-75
2022/06/15 08:26:00;;;;;;;3.50;3.20;;;26.60;48.90;;;-142.21;46.17;112049.66;5050943;28;20202;-75
2022/06/15 08:28:32;;;;;;;3.20;2.73;;;26.70;46.00;;;-142.21;45.39;112049.66;5015908;28;20229;-75
2022/06/15 08:31:00;;;;;;;3.33;3.03;;;26.60;46.80;;;-142.21;44.98;112049.66;5050929;28;20216;-75
2022/06/15 08:33:28;;;;;;;7.00;3.17;;;26.70;46.30;;;-142.21;44.73;112049.66;5050796;28;20238;-75
2022/06/15 08:35:57;;;;;;;5.20;2.83;;;26.60;46.10;;;-142.21;46.00;112049.66;5053405;28;20206;-74
2022/06/15 08:38:27;;;;;;;3.67;2.80;;;26.70;46.60;;;-142.21;45.17;112049.66;5053789;28;20301;-74
2022/06/15 08:40:58;;;;;;;6.60;2.70;;;26.90;46.10;;;-142.21;46.03;112049.66;5054504;28;20267;-75
2022/06/15 08:43:43;;;;;;;4.00;3.10;;;27.00;46.10;;;-142.21;48.47;112049.66;5054334;28;20201;-75
2022/06/15 08:46:35;;;;;;;3.47;2.83;;;27.10;47.00;;;-142.21;49.24;112049.66;5054843;28;20551;-75
2022/06/15 08:49:23;;;;;;;3.23;2.93;;;27.40;47.20;;;-142.21;46.79;112049.66;5054536;28;20205;-74
2022/06/15 08:51:59;;;;;;;4.70;3.03;;;27.50;46.00;;;-142.21;44.11;112049.66;5054027;28;20246;-75
2022/06/15 08:54:31;;;;;;;3.23;2.80;;;27.60;44.60;;;-142.21;42.55;112049.66;5054045;28;20230;-75
2022/06/15 08:57:08;;;;;;;4.33;3.20;;;27.60;44.50;;;-142.21;43.24;112049.66;5054456;28;20576;-75
2022/06/15 08:59:45;;;;;;;3.20;2.90;;;27.70;44.40;;;-142.21;42.71;112049.66;5053942;28;20217;-74
2022/06/15 09:02:24;;;;;;;4.57;2.93;;;27.70;44.30;;;-142.21;40.07;112049.66;5054623;28;20563;-75
2022/06/15 09:05:03;;;;;;;4.77;2.77;;;27.80;43.00;;;-142.21;42.67;112049.66;5054582;28;20196;-74
2022/06/15 09:07:57;;;;;;;3.67;3.10;;;27.80;44.40;;;-142.21;41.12;112049.66;5053338;28;20182;-75
2022/06/15 09:10:46;;;;;;;3.23;2.90;;;28.00;43.50;;;-142.21;40.42;112049.66;5007773;28;20668;-76
2022/06/15 09:13:43;;;;;;;2.90;2.43;;;28.10;42.80;;;-142.21;40.57;112049.66;5033906;28;20209;-75
2022/06/15 09:16:23;;;;;;;3.80;2.97;;;28.20;43.00;;;-142.21;41.17;112049.66;5034356;28;20288;-74
2022/06/15 09:18:57;;;;;;;5.97;2.90;;;28.30;43.20;;;-142.21;41.12;112049.66;5034341;28;20189;-75
2022/06/15 09:21:32;;;;;;;4.20;3.00;;;28.40;43.30;;;-142.21;40.72;112049.66;5033121;28;20192;-75
2022/06/15 09:24:08;;;;;;;3.87;2.70;;;28.50;43.00;;;-142.21;39.67;112049.66;5034098;28;20273;-75
2022/06/15 09:26:43;;;;;;;3.20;2.90;;;28.60;42.30;;;-142.21;40.07;112049.66;5052447;28;20192;-75
2022/06/15 09:29:19;;;;;;;4.50;3.07;;;28.60;42.30;;;-142.21;39.78;112049.66;5053999;28;20559;-75
2022/06/15 09:31:53;;;;;;;4.23;3.30;;;28.50;42.10;;;-142.21;39.89;112049.66;5053987;28;20216;-74
2022/06/15 09:34:29;;;;;;;6.10;3.27;;;28.60;42.50;;;-142.21;38.67;112049.66;5053533;28;20276;-75
2022/06/15 09:36:58;;;;;;;6.67;3.10;;;28.60;41.80;;;-142.21;39.70;112049.66;5053938;28;20191;-75
2022/06/15 09:39:30;;;;;;;3.97;2.77;;;28.80;42.40;;;-142.21;39.80;112049.66;5052813;28;20306;-74
2022/06/15 09:42:09;;;;;;;5.37;3.10;;;28.90;42.20;;;-142.21;37.27;112049.66;5053452;28;20721;-76
2022/06/15 09:44:54;;;;;;;4.70;2.87;;;29.10;40.30;;;-142.21;37.54;112049.66;5053198;28;20282;-76
2022/06/15 09:47:41;;;;;;;5.33;3.33;;;29.00;40.40;;;-142.21;36.31;112049.66;5052880;28;20715;-76
2022/06/15 09:50:25;;;;;;;4.90;2.67;;;29.00;39.70;;;-142.21;37.82;112049.66;5053075;28;20185;-75
2022/06/15 09:53:15;;;;;;;7.97;3.30;;;29.10;40.80;;;-142.21;37.07;112049.66;5053256;28;20723;-75
2022/06/15 09:55:48;;;;;;;4.57;2.83;;;29.20;40.20;;;-142.21;38.04;112049.66;5052793;28;20194;-75
2022/06/15 09:58:23;;;;;;;4.00;3.00;;;29.40;40.70;;;-142.21;35.93;112049.66;5053022;28;20210;-75
2022/06/15 10:00:51;;;;;;;3.43;2.87;;;29.40;39.00;;;-142.21;37.06;112049.66;5053287;28;20648;-75
2022/06/15 10:03:25;;;;;;;3.03;2.77;;;29.50;40.30;;;-142.21;39.62;112049.66;5053033;28;20218;-75
2022/06/15 10:06:00;;;;;;;5.00;2.97;;;29.60;41.60;;;-142.21;39.50;112049.66;5052938;28;20198;-74
2022/06/15 10:08:28;;;;;;;2.97;2.67;;;29.80;41.80;;;-142.21;41.17;112049.66;5052541;28;20196;-74
2022/06/15 10:11:01;;;;;;;4.17;3.30;;;30.00;42.50;;;-142.21;41.36;112049.66;5033217;28;20569;-75
2022/06/15 10:13:34;;;;;;;3.40;2.70;;;30.20;42.70;;;-142.21;41.40;112049.66;5032688;28;20271;-75
2022/06/15 10:16:04;;;;;;;3.80;2.73;;;30.40;42.70;;;-142.21;37.58;112049.66;5032925;28;20281;-75
2022/06/15 10:18:37;;;;;;;6.93;3.60;;;30.50;40.50;;;-142.21;35.76;112049.66;5033822;28;20273;-75
2022/06/15 10:21:10;;;;;;;8.20;3.17;;;30.40;38.70;;;-142.21;36.88;112049.66;5033171;28;20260;-75
2022/06/15 10:23:50;;;;;;;5.93;3.00;;;30.30;39.80;;;-142.21;36.69;112049.66;5032137;28;20285;-75
2022/06/15 10:26:37;;;;;;;4.33;3.40;;;30.40;39.40;;;-142.21;37.36;112049.66;5049757;28;20212;-75
2022/06/15 10:29:29;;;;;;;3.23;2.93;;;30.50;39.90;;;-142.21;35.95;112049.66;5052569;28;20327;-74